Scottsbluff, NE

2:18 AM MDT on May 23, 2015 (GMT -0600)
Scottsbluff Main St Mrkt | | Change Station
CLOSE
Current Station
Personal Weather Station
Location: Scottsbluff, NE
Elevation: 3881 ft
Nearby Weather Stations

Elev 3881 ft 41.86 °N, 103.67 °W | Updated 3 minutes ago

Overcast
Overcast
45.2 °F
Feels Like 42 °F
N
6.0
Wind Variable Wind from SW
Gusts 7.0 mph

Today
High -- | Low -- °F
--% Chance of Precip.
Yesterday
High -- | Low -- °F
Precip. -- in
5:27 AM 8:15 PM
Waxing Crescent, 28% visible
Pressure 30.04 in
Visibility 4.0 miles
Clouds Overcast 300 ft
Windchill 42 °F
Dew Point 44 °F
Humidity 97%
Rainfall 0.00 in
Snow Depth Not available.
UV 0 out of 12
Pollen .90 out of 12
Air Quality Not available.
Flu Activity No Activity
METAR KBFF 230753Z AUTO 11009KT 4SM BR OVC003 08/07 A3006 RMK AO2 SLP171 T00780072

More Conditions Fewer Conditions

Pressure 30.04 in
Visibility 4.0 miles
Clouds Overcast 300 ft
Windchill 42 °F
Dew Point 44 °F
Humidity 97%
Rainfall 0.00 in
Snow Depth Not available.
UV 0 out of 12
Pollen .90 out of 12
Air Quality Not available.
Flu Activity No Activity
METAR KBFF 230753Z AUTO 11009KT 4SM BR OVC003 08/07 A3006 RMK AO2 SLP171 T00780072

More Conditions Fewer Conditions

10-Day Weather Forecast

Almanac

Astronomy

May. 23, 2015 Rise Set
Actual Time
Civil Twilight
Nautical Twilight
Astronomical Twilight
Moon
Length of Visible Light
Length of Day
Tomorrow will be .
, % of the Moon is Illuminated

Today's Extremes

State Highs State Lows

Community

WunderPhotos

Upload Photos

1,823,401 photos uploaded!

WunderBlogs® & News

Nearby

Air Quality

  Air Quality AQ Index Pollutant
Not available.

Snow Depth

Station Depth Elevation

Earthquake Activity

City Distance Mag. Time & Date
Minimum magnitude displayed is 2.5.

Coastal Water Temperatures

Place Temperature

Stations

Nearby Weather Stations

Station Location Temp. Windchill Dew Point Humidity Wind Precip. Elev Updated Type